Time;durP1;ratioP1;P1;durP2;ratioP2;P2;SDS_P1;SDS_P2;PMS_P1;PMS_P2;Temp;Humidity;BMP_temperature;BMP_pressure;BME280_temperature;BME280_humidity;BME280_pressure;Samples;Min_cycle;Max_cycle;Signal;HPM_P1;HPM_P2
2022/09/22 00:00:35;;;;;;;4.82;3.17;;;;;;;3.85;97.24;99480.41;4185895;28;20106;-72
2022/09/22 00:02:35;;;;;;;6.00;2.78;;;;;;;3.78;97.59;99480.00;4186503;28;20560;-72
2022/09/22 00:04:35;;;;;;;4.75;3.00;;;;;;;3.73;97.59;99478.22;4185762;28;20392;-72
2022/09/22 00:06:47;;;;;;;5.70;3.30;;;;;;;3.71;97.08;99476.88;4185678;28;20048;-72
2022/09/22 00:08:51;;;;;;;4.35;2.90;;;;;;;3.77;97.72;99470.19;4184862;28;20397;-72
2022/09/22 00:11:07;;;;;;;4.03;2.80;;;;;;;3.85;96.86;99477.66;4185875;28;20400;-72
2022/09/22 00:13:07;;;;;;;6.43;2.90;;;;;;;3.85;97.18;99473.00;4186445;28;20256;-72
2022/09/22 00:15:09;;;;;;;5.60;2.65;;;;;;;3.84;97.27;99473.31;4185899;28;20044;-72
2022/09/22 00:17:11;;;;;;;4.70;2.80;;;;;;;3.88;97.46;99475.09;4185732;28;20127;-72
2022/09/22 00:19:18;;;;;;;5.20;2.80;;;;;;;3.87;97.69;99476.22;4184463;28;20048;-72
2022/09/22 00:21:21;;;;;;;3.88;2.42;;;;;;;3.82;97.24;99472.81;4186029;28;20589;-72
2022/09/22 00:23:25;;;;;;;4.07;2.50;;;;;;;3.77;98.04;99471.00;4186191;28;20109;-72
2022/09/22 00:25:26;;;;;;;4.80;2.50;;;;;;;3.78;98.30;99469.06;4185286;28;20041;-72
2022/09/22 00:27:26;;;;;;;4.47;2.65;;;;;;;3.83;97.72;99472.50;4185015;28;20055;-72
2022/09/22 00:29:28;;;;;;;4.18;2.78;;;;;;;3.82;96.77;99470.06;4186168;28;20055;-72
2022/09/22 00:31:29;;;;;;;5.43;2.80;;;;;;;3.82;96.24;99481.03;4187024;28;20048;-72
2022/09/22 00:33:29;;;;;;;5.65;3.10;;;;;;;3.79;95.17;99479.69;4185314;28;20071;-72
2022/09/22 00:35:29;;;;;;;4.50;3.00;;;;;;;3.74;96.04;99470.81;4184305;28;20049;-72
2022/09/22 00:37:30;;;;;;;5.85;3.33;;;;;;;3.61;96.08;99477.94;4185400;28;20057;-72
2022/09/22 00:39:31;;;;;;;3.58;2.85;;;;;;;3.52;97.77;99471.56;4185177;28;20041;-72
2022/09/22 00:41:39;;;;;;;3.50;2.50;;;;;;;3.48;98.55;99473.31;4184808;28;20051;-72
2022/09/22 00:43:40;;;;;;;6.82;2.88;;;;;;;3.48;97.50;99471.38;4185358;28;20044;-72
2022/09/22 00:45:41;;;;;;;3.92;3.33;;;;;;;3.55;97.45;99474.47;4187412;28;20064;-72
2022/09/22 00:47:45;;;;;;;8.80;3.17;;;;;;;3.59;97.30;99461.81;4189192;28;20782;-72
2022/09/22 00:49:52;;;;;;;7.20;3.40;;;;;;;3.67;97.74;99473.97;4187104;28;20044;-72
2022/09/22 00:51:52;;;;;;;6.32;3.15;;;;;;;3.60;96.92;99462.63;4188315;28;20040;-72
2022/09/22 00:53:55;;;;;;;3.85;2.85;;;;;;;3.60;96.98;99463.44;4189152;28;20044;-72
2022/09/22 00:56:07;;;;;;;6.93;3.35;;;;;;;3.56;96.78;99467.13;4178352;28;20028;-72
2022/09/22 00:58:13;;;;;;;4.90;3.05;;;;;;;3.52;96.88;99461.44;4188100;28;20439;-72
2022/09/22 01:00:14;;;;;;;5.28;3.03;;;;;;;3.52;96.29;99460.63;4188390;28;20041;-72
2022/09/22 01:02:15;;;;;;;10.93;3.38;;;;;;;3.52;96.45;99466.09;4188736;28;20459;-72
2022/09/22 01:04:15;;;;;;;6.80;3.00;;;;;;;3.56;96.50;99461.63;4186963;28;20047;-72
2022/09/22 01:06:20;;;;;;;3.80;2.53;;;;;;;3.50;96.29;99462.84;4189113;28;20036;-72
2022/09/22 01:08:23;;;;;;;7.90;3.25;;;;;;;3.31;96.26;99458.34;4185215;28;20062;-72
2022/09/22 01:10:26;;;;;;;3.97;2.67;;;;;;;3.17;96.88;99463.00;4182380;28;20448;-72
2022/09/22 01:12:29;;;;;;;3.42;2.70;;;;;;;3.06;97.85;99458.84;4186769;28;20507;-72
2022/09/22 01:14:45;;;;;;;4.60;2.80;;;;;;;3.01;99.57;99454.31;4189563;28;20063;-72
2022/09/22 01:17:07;;;;;;;2.70;2.40;;;;;;;2.97;99.96;99455.19;4192516;28;20057;-72
2022/09/22 01:19:30;;;;;;;5.15;3.42;;;;;;;2.94;99.59;99461.28;4184937;28;20056;-72
2022/09/22 01:21:45;;;;;;;5.80;2.85;;;;;;;2.92;100.00;99460.78;4188574;28;20048;-72
2022/09/22 01:23:57;;;;;;;3.90;2.45;;;;;;;2.88;99.88;99460.56;4187213;28;20120;-72
2022/09/22 01:26:35;;;;;;;2.97;2.42;;;;;;;2.84;100.00;99451.38;4187353;28;20487;-72
2022/09/22 01:28:47;;;;;;;6.25;3.05;;;;;;;2.76;100.00;99458.34;4186848;28;20052;-72
2022/09/22 01:30:59;;;;;;;4.85;2.97;;;;;;;2.76;100.00;99450.16;4185977;28;20131;-71
2022/09/22 01:33:06;;;;;;;4.82;2.60;;;;;;;2.83;100.00;99457.94;4186441;28;20040;-71
2022/09/22 01:35:33;;;;;;;3.33;2.45;;;;;;;2.85;100.00;99452.97;4186065;28;20546;-72
2022/09/22 01:37:57;;;;;;;4.13;3.10;;;;;;;2.78;100.00;99453.38;4185811;28;20481;-72
2022/09/22 01:40:15;;;;;;;7.75;2.90;;;;;;;2.79;100.00;99448.72;4185559;28;20068;-72
2022/09/22 01:42:24;;;;;;;3.30;2.15;;;;;;;2.83;100.00;99451.69;4187191;28;20090;-72
2022/09/22 01:44:41;;;;;;;4.07;2.78;;;;;;;2.76;99.43;99444.69;4185450;28;20389;-72
2022/09/22 01:46:54;;;;;;;5.22;2.53;;;;;;;2.76;99.27;99441.13;4185715;28;20041;-72
2022/09/22 01:48:59;;;;;;;4.10;3.10;;;;;;;2.67;99.39;99441.03;4184682;28;20107;-72
2022/09/22 01:51:09;;;;;;;4.45;2.35;;;;;;;2.60;99.69;99448.81;4183170;28;20044;-72
2022/09/22 01:53:13;;;;;;;4.45;2.60;;;;;;;2.56;99.96;99442.31;4204680;28;20047;-72
2022/09/22 01:55:21;;;;;;;3.58;2.53;;;;;;;2.50;100.00;99440.81;4187410;28;20122;-72
2022/09/22 01:57:33;;;;;;;4.57;2.45;;;;;;;2.53;100.00;99441.00;4185754;28;20094;-72
2022/09/22 01:59:38;;;;;;;5.10;2.40;;;;;;;2.53;100.00;99435.53;4176029;28;20049;-72
2022/09/22 02:01:46;;;;;;;3.92;2.75;;;;;;;2.46;99.96;99435.13;4186744;28;20037;-72
2022/09/22 02:03:54;;;;;;;4.20;2.20;;;;;;;2.39;100.00;99428.44;4185503;28;20136;-72
2022/09/22 02:06:01;;;;;;;3.42;2.38;;;;;;;2.33;99.77;99426.94;4186965;28;20131;-72
2022/09/22 02:08:08;;;;;;;5.18;2.95;;;;;;;2.28;99.59;99429.75;4172015;28;20083;-72
2022/09/22 02:10:13;;;;;;;3.85;2.83;;;;;;;2.23;100.00;99426.00;4185957;28;20032;-72
2022/09/22 02:12:17;;;;;;;4.38;2.90;;;;;;;2.24;100.00;99426.81;4184426;28;20115;-72
2022/09/22 02:14:17;;;;;;;4.35;2.53;;;;;;;2.26;100.00;99424.59;4185296;28;20103;-72
2022/09/22 02:16:21;;;;;;;4.90;2.53;;;;;;;2.27;100.00;99425.38;4184466;28;20151;-72
2022/09/22 02:18:26;;;;;;;3.78;2.78;;;;;;;2.24;100.00;99411.22;4183989;28;20131;-72
2022/09/22 02:20:27;;;;;;;3.78;2.40;;;;;;;2.17;100.00;99416.28;4182847;28;20052;-73
2022/09/22 02:22:27;;;;;;;3.65;2.28;;;;;;;2.16;100.00;99416.56;4184456;28;20394;-72
2022/09/22 02:24:33;;;;;;;6.18;3.47;;;;;;;2.10;100.00;99420.50;4186002;28;20749;-72
2022/09/22 02:26:35;;;;;;;7.43;3.80;;;;;;;2.14;100.00;99416.03;4186948;28;20044;-72
2022/09/22 02:28:38;;;;;;;7.68;3.38;;;;;;;2.20;100.00;99417.56;4185433;28;20055;-72
2022/09/22 02:30:40;;;;;;;7.53;3.90;;;;;;;2.19;100.00;99413.22;4184115;28;20456;-72
2022/09/22 02:32:47;;;;;;;11.25;4.53;;;;;;;2.17;100.00;99415.47;4186379;28;20048;-72
2022/09/22 02:34:48;;;;;;;8.15;4.40;;;;;;;2.10;99.43;99415.03;4184577;28;20048;-72
2022/09/22 02:37:16;;;;;;;8.75;4.30;;;;;;;2.01;99.82;99417.63;4185495;28;20675;-72
2022/09/22 02:39:37;;;;;;;11.50;6.00;;;;;;;1.97;100.00;99414.69;4184901;28;20049;-72
2022/09/22 02:41:56;;;;;;;14.38;5.15;;;;;;;2.09;100.00;99422.41;4185089;28;20094;-72
2022/09/22 02:44:04;;;;;;;7.65;4.80;;;;;;;2.27;100.00;99422.66;4186171;28;20139;-72
2022/09/22 02:46:26;;;;;;;10.10;4.90;;;;;;;2.33;100.00;99416.00;4185003;28;20070;-72
2022/09/22 02:48:31;;;;;;;9.25;4.35;;;;;;;2.38;99.40;99411.25;4184372;28;20135;-72
2022/09/22 02:50:33;;;;;;;11.20;5.15;;;;;;;2.37;99.17;99406.09;4184448;28;20459;-72
2022/09/22 02:52:35;;;;;;;9.80;5.90;;;;;;;2.28;98.91;99419.63;4183925;28;20044;-72
2022/09/22 02:54:35;;;;;;;12.25;7.00;;;;;;;2.21;98.39;99405.53;4185171;28;20170;-72
2022/09/22 02:56:36;;;;;;;8.55;4.90;;;;;;;2.22;100.00;99418.09;4185273;28;20102;-72
2022/09/22 02:58:36;;;;;;;10.10;5.18;;;;;;;2.10;99.70;99402.19;4181942;28;20045;-72
2022/09/22 03:00:37;;;;;;;10.68;4.43;;;;;;;2.09;99.92;99411.50;4172313;28;20132;-72
2022/09/22 03:02:37;;;;;;;9.55;5.45;;;;;;;2.14;100.00;99413.31;4186211;28;20100;-72
2022/09/22 03:04:37;;;;;;;7.70;4.43;;;;;;;2.16;100.00;99414.66;4184071;28;20040;-72
2022/09/22 03:06:38;;;;;;;8.00;4.07;;;;;;;2.11;99.20;99406.53;4185596;28;20071;-72
2022/09/22 03:08:38;;;;;;;7.35;4.07;;;;;;;2.13;99.80;99412.50;4184316;28;20060;-72
2022/09/22 03:10:38;;;;;;;7.63;3.97;;;;;;;2.06;99.31;99414.81;4185442;28;20095;-72
2022/09/22 03:12:42;;;;;;;8.38;3.80;;;;;;;2.04;100.00;99405.31;4184932;28;20314;-72
2022/09/22 03:14:43;;;;;;;6.20;4.05;;;;;;;2.06;100.00;99408.53;4185371;28;20472;-72
2022/09/22 03:16:43;;;;;;;6.28;3.60;;;;;;;2.07;100.00;99402.81;4185668;28;20140;-72
2022/09/22 03:18:43;;;;;;;6.55;3.20;;;;;;;2.02;100.00;99415.72;4187666;28;20088;-72
2022/09/22 03:20:44;;;;;;;5.75;3.33;;;;;;;1.97;100.00;99411.13;4186121;28;20076;-72
2022/09/22 03:22:44;;;;;;;9.05;3.67;;;;;;;1.88;100.00;99402.81;4182948;28;20267;-72
2022/09/22 03:24:45;;;;;;;6.00;3.40;;;;;;;1.83;100.00;99402.94;4186293;28;20036;-72
2022/09/22 03:26:45;;;;;;;7.63;2.90;;;;;;;1.80;100.00;99408.97;4183760;28;20040;-72
2022/09/22 03:28:45;;;;;;;6.55;3.70;;;;;;;1.79;100.00;99410.06;4183226;28;20537;-72
2022/09/22 03:30:46;;;;;;;4.25;3.03;;;;;;;1.79;100.00;99404.63;4185946;28;20131;-72
2022/09/22 03:32:46;;;;;;;7.18;4.00;;;;;;;1.86;100.00;99413.25;4186650;28;20139;-72
2022/09/22 03:34:47;;;;;;;6.50;3.95;;;;;;;1.92;100.00;99395.69;4185121;28;20045;-72
2022/09/22 03:36:48;;;;;;;5.88;4.07;;;;;;;1.95;100.00;99402.44;4185444;28;20560;-72
2022/09/22 03:38:48;;;;;;;6.80;4.50;;;;;;;1.92;99.87;99405.78;4180164;28;20040;-72
2022/09/22 03:40:50;;;;;;;6.25;3.63;;;;;;;1.87;99.89;99403.94;4184618;28;20472;-72
2022/09/22 03:42:50;;;;;;;7.35;3.80;;;;;;;1.83;100.00;99405.66;4183500;28;20052;-72
2022/09/22 03:44:50;;;;;;;5.38;3.50;;;;;;;1.74;100.00;99402.00;4179875;28;20075;-72
2022/09/22 03:46:51;;;;;;;5.93;3.78;;;;;;;1.69;100.00;99410.25;4180043;28;20044;-72
2022/09/22 03:48:51;;;;;;;4.97;3.50;;;;;;;1.65;100.00;99401.81;4177193;28;20494;-72
2022/09/22 03:50:52;;;;;;;5.70;3.40;;;;;;;1.63;100.00;99406.78;4180421;28;20520;-72
2022/09/22 03:52:52;;;;;;;5.55;4.05;;;;;;;1.64;99.92;99400.19;4178677;28;20056;-72
2022/09/22 03:54:53;;;;;;;5.30;3.95;;;;;;;1.62;100.00;99401.63;4179785;28;20379;-72
2022/09/22 03:56:54;;;;;;;5.13;3.70;;;;;;;1.55;100.00;99398.44;4179479;28;20513;-72
2022/09/22 03:58:54;;;;;;;5.70;3.88;;;;;;;1.49;100.00;99397.75;4179695;28;20072;-72
2022/09/22 04:00:54;;;;;;;5.00;3.47;;;;;;;1.48;100.00;99392.56;4186509;28;20040;-72
2022/09/22 04:02:57;;;;;;;5.60;3.80;;;;;;;1.45;100.00;99393.16;4186994;28;20407;-72
2022/09/22 04:04:57;;;;;;;6.47;3.72;;;;;;;1.48;100.00;99393.38;4186052;28;20037;-72
2022/09/22 04:06:58;;;;;;;8.95;5.30;;;;;;;1.54;100.00;99399.56;4185263;28;20041;-72
2022/09/22 04:09:00;;;;;;;5.93;4.63;;;;;;;1.56;100.00;99400.88;4185293;28;20137;-72
2022/09/22 04:11:01;;;;;;;6.30;4.45;;;;;;;1.55;100.00;99395.72;4184207;28;20048;-72
2022/09/22 04:13:01;;;;;;;7.10;4.10;;;;;;;1.54;100.00;99396.84;4185521;28;20037;-73
2022/09/22 04:15:02;;;;;;;6.22;4.50;;;;;;;1.50;100.00;99393.91;4185996;28;20129;-72
2022/09/22 04:17:03;;;;;;;4.88;3.72;;;;;;;1.42;100.00;99385.56;4185495;28;20059;-72
2022/09/22 04:19:04;;;;;;;5.65;3.83;;;;;;;1.39;100.00;99390.50;4185511;28;20044;-72
2022/09/22 04:21:05;;;;;;;6.32;4.45;;;;;;;1.33;100.00;99390.88;4189078;28;20470;-72
2022/09/22 04:23:05;;;;;;;6.50;3.70;;;;;;;1.29;100.00;99387.91;4188821;28;20072;-72
2022/09/22 04:25:06;;;;;;;4.88;3.58;;;;;;;1.36;100.00;99393.00;4189615;28;20039;-72
2022/09/22 04:27:06;;;;;;;9.80;4.82;;;;;;;1.44;100.00;99394.25;4188466;28;20537;-72
2022/09/22 04:29:07;;;;;;;6.35;4.05;;;;;;;1.47;100.00;99399.13;4188894;28;20087;-72
2022/09/22 04:31:07;;;;;;;7.18;3.42;;;;;;;1.54;100.00;99394.09;4188998;28;20500;-72
2022/09/22 04:33:08;;;;;;;6.35;3.97;;;;;;;1.54;100.00;99388.66;4188993;28;20047;-72
2022/09/22 04:35:08;;;;;;;7.03;4.25;;;;;;;1.53;100.00;99390.56;4189258;28;20064;-72
2022/09/22 04:37:10;;;;;;;4.88;3.70;;;;;;;1.54;100.00;99386.72;4187165;28;20428;-72
2022/09/22 04:39:10;;;;;;;7.40;4.43;;;;;;;1.58;99.27;99395.97;4189553;28;20040;-72
2022/09/22 04:41:10;;;;;;;8.70;4.78;;;;;;;1.58;99.19;99393.22;4189017;28;20596;-72
2022/09/22 04:43:11;;;;;;;6.57;4.35;;;;;;;1.59;98.87;99394.84;4190103;28;20127;-72
2022/09/22 04:45:11;;;;;;;6.53;4.43;;;;;;;1.64;99.34;99391.22;4188990;28;20201;-72
2022/09/22 04:47:12;;;;;;;5.03;4.00;;;;;;;1.60;99.03;99392.94;4189058;28;20131;-72
2022/09/22 04:49:12;;;;;;;6.68;4.75;;;;;;;1.57;99.57;99396.22;4188314;28;20048;-72
2022/09/22 04:51:13;;;;;;;6.70;4.57;;;;;;;1.54;99.16;99394.09;4188897;28;20136;-72
2022/09/22 04:53:13;;;;;;;6.80;4.68;;;;;;;1.54;99.54;99394.91;4189403;28;20083;-72
2022/09/22 04:55:15;;;;;;;6.07;4.25;;;;;;;1.55;99.84;99393.81;4188295;28;20298;-72
2022/09/22 04:57:15;;;;;;;5.57;4.18;;;;;;;1.58;99.95;99395.97;4188126;28;20094;-72
2022/09/22 04:59:15;;;;;;;5.68;4.00;;;;;;;1.61;99.76;99392.63;4188583;28;20098;-72
2022/09/22 05:01:16;;;;;;;5.28;4.03;;;;;;;1.59;99.33;99385.84;4188857;28;20036;-72
2022/09/22 05:03:16;;;;;;;8.77;3.55;;;;;;;1.57;99.35;99393.50;4188759;28;20044;-71
2022/09/22 05:05:17;;;;;;;5.07;3.60;;;;;;;1.60;100.00;99392.94;4187111;28;20388;-72
2022/09/22 05:07:18;;;;;;;5.38;3.25;;;;;;;1.52;99.83;99388.16;4188721;28;20392;-72
2022/09/22 05:09:19;;;;;;;7.38;3.83;;;;;;;1.47;99.92;99390.94;4187946;28;20040;-72
2022/09/22 05:11:22;;;;;;;4.65;3.20;;;;;;;1.34;99.81;99382.41;4188258;28;20441;-72
2022/09/22 05:13:24;;;;;;;7.75;3.70;;;;;;;1.24;100.00;99393.47;4188063;28;20094;-72
2022/09/22 05:15:24;;;;;;;6.27;3.83;;;;;;;1.12;100.00;99390.34;4188865;28;20185;-72
2022/09/22 05:17:25;;;;;;;5.78;3.83;;;;;;;1.06;100.00;99389.59;4189251;28;20075;-72
2022/09/22 05:19:25;;;;;;;5.65;3.70;;;;;;;1.00;100.00;99390.78;4187009;28;20093;-72
2022/09/22 05:21:26;;;;;;;7.30;3.60;;;;;;;1.01;100.00;99395.13;4189758;28;20930;-72
2022/09/22 05:23:26;;;;;;;5.82;3.90;;;;;;;1.05;100.00;99393.44;4188006;28;20051;-71
2022/09/22 05:25:27;;;;;;;6.20;4.22;;;;;;;1.14;100.00;99390.84;4187698;28;20131;-72
2022/09/22 05:27:27;;;;;;;6.25;4.45;;;;;;;1.21;100.00;99395.94;4188937;28;20531;-72
2022/09/22 05:29:28;;;;;;;6.72;4.32;;;;;;;1.33;100.00;99399.06;4189683;28;20107;-72
2022/09/22 05:31:28;;;;;;;8.82;4.65;;;;;;;1.35;100.00;99391.41;4188085;28;20113;-72
2022/09/22 05:33:29;;;;;;;8.13;4.20;;;;;;;1.39;100.00;99395.13;4187881;28;20415;-72
2022/09/22 05:35:29;;;;;;;8.60;3.92;;;;;;;1.43;100.00;99393.47;4188496;28;20060;-72
2022/09/22 05:37:30;;;;;;;6.63;4.13;;;;;;;1.44;100.00;99400.53;4187527;28;20487;-72
2022/09/22 05:39:30;;;;;;;9.88;4.72;;;;;;;1.42;100.00;99391.84;4123525;28;20072;-72
2022/09/22 05:41:30;;;;;;;8.98;4.68;;;;;;;1.46;100.00;99397.50;4199274;28;20457;-72
2022/09/22 05:43:31;;;;;;;17.52;9.02;;;;;;;1.52;100.00;99391.69;4188329;28;20138;-72
2022/09/22 05:45:31;;;;;;;15.75;8.35;;;;;;;1.61;100.00;99397.28;4187691;28;20114;-72
2022/09/22 05:47:33;;;;;;;14.07;6.88;;;;;;;1.65;100.00;99404.56;4187829;28;20530;-72
2022/09/22 05:49:33;;;;;;;13.63;6.55;;;;;;;1.61;100.00;99406.25;4186133;28;20071;-72
2022/09/22 05:51:33;;;;;;;10.07;5.50;;;;;;;1.62;100.00;99393.44;4187970;28;20329;-72
2022/09/22 05:53:34;;;;;;;11.45;5.40;;;;;;;1.65;100.00;99401.00;4187478;28;20123;-72
2022/09/22 05:55:35;;;;;;;8.98;4.80;;;;;;;1.67;100.00;99405.09;4188202;28;20137;-72
2022/09/22 05:57:35;;;;;;;9.88;5.65;;;;;;;1.68;100.00;99400.44;4187175;28;20047;-72
2022/09/22 05:59:35;;;;;;;10.02;5.00;;;;;;;1.72;100.00;99408.81;4187506;28;20123;-72
2022/09/22 06:01:38;;;;;;;12.70;5.07;;;;;;;1.74;100.00;99409.34;4187405;28;20340;-72
2022/09/22 06:03:38;;;;;;;10.10;5.35;;;;;;;1.77;100.00;99401.38;4186371;28;20036;-72
2022/09/22 06:05:39;;;;;;;12.18;6.00;;;;;;;1.84;100.00;99401.81;4185703;28;20767;-72
2022/09/22 06:07:39;;;;;;;9.73;6.53;;;;;;;1.91;100.00;99402.25;4186059;28;20041;-72
2022/09/22 06:09:39;;;;;;;10.80;5.28;;;;;;;1.95;100.00;99407.91;4188479;28;20494;-72
2022/09/22 06:11:39;;;;;;;10.68;5.55;;;;;;;1.95;99.68;99410.63;4186678;28;20060;-72
2022/09/22 06:13:40;;;;;;;7.97;4.93;;;;;;;1.94;99.60;99406.28;4187097;28;20101;-72
2022/09/22 06:15:46;;;;;;;10.73;5.60;;;;;;;1.92;99.72;99403.88;4187429;28;20145;-72
2022/09/22 06:17:51;;;;;;;11.05;5.88;;;;;;;1.94;99.96;99404.38;4186974;28;20036;-72
2022/09/22 06:19:51;;;;;;;10.70;5.07;;;;;;;1.92;100.00;99401.13;4187054;28;20059;-72
2022/09/22 06:21:51;;;;;;;12.23;6.25;;;;;;;1.97;100.00;99408.41;4187356;28;20092;-72
2022/09/22 06:23:52;;;;;;;12.48;6.45;;;;;;;1.96;100.00;99409.53;4185968;28;20041;-72
2022/09/22 06:25:57;;;;;;;30.67;14.82;;;;;;;1.98;100.00;99412.75;4187053;28;20056;-72
2022/09/22 06:28:04;;;;;;;47.53;28.45;;;;;;;1.98;100.00;99413.56;4186382;28;20484;-72
2022/09/22 06:30:05;;;;;;;31.40;19.95;;;;;;;2.00;100.00;99426.13;4185025;28;20509;-72
2022/09/22 06:32:07;;;;;;;21.33;13.98;;;;;;;1.97;100.00;99416.59;4186702;28;20388;-72
2022/09/22 06:34:07;;;;;;;17.30;11.90;;;;;;;1.98;100.00;99419.03;4187770;28;20191;-72
2022/09/22 06:36:09;;;;;;;17.52;11.20;;;;;;;1.95;100.00;99422.38;4187315;28;20105;-72
2022/09/22 06:38:13;;;;;;;13.43;10.20;;;;;;;1.96;100.00;99420.44;4185104;28;20594;-72
2022/09/22 06:40:14;;;;;;;12.35;8.75;;;;;;;1.95;100.00;99413.38;4186811;28;20255;-72
2022/09/22 06:42:16;;;;;;;16.95;9.13;;;;;;;1.95;100.00;99429.75;4186193;28;20370;-72
2022/09/22 06:44:16;;;;;;;14.80;8.20;;;;;;;1.93;100.00;99421.84;4186804;28;20333;-72
2022/09/22 06:46:17;;;;;;;10.60;7.00;;;;;;;1.93;100.00;99412.88;4184575;28;20029;-72
2022/09/22 06:48:20;;;;;;;14.43;7.70;;;;;;;1.95;100.00;99413.38;4115681;28;20067;-72
2022/09/22 06:50:20;;;;;;;13.38;7.13;;;;;;;1.94;100.00;99407.09;4184714;28;20438;-72
2022/09/22 06:52:20;;;;;;;13.48;8.23;;;;;;;1.96;100.00;99407.59;4184883;28;20100;-72
2022/09/22 06:54:21;;;;;;;16.42;8.65;;;;;;;2.04;100.00;99399.84;4186606;28;20440;-72
2022/09/22 06:56:26;;;;;;;24.15;12.77;;;;;;;2.12;100.00;99408.16;4186537;28;20153;-72
2022/09/22 06:58:27;;;;;;;25.27;13.52;;;;;;;2.19;100.00;99402.31;4184713;28;20772;-72
2022/09/22 07:00:32;;;;;;;28.98;14.30;;;;;;;2.25;100.00;99404.66;4186929;28;20052;-72
2022/09/22 07:02:34;;;;;;;29.02;14.48;;;;;;;2.32;100.00;99401.53;4185413;28;20044;-72
2022/09/22 07:04:35;;;;;;;24.88;14.25;;;;;;;2.39;100.00;99395.66;4184273;28;20384;-72
2022/09/22 07:06:39;;;;;;;23.67;12.85;;;;;;;2.41;100.00;99399.72;4184912;28;20044;-72
2022/09/22 07:08:39;;;;;;;20.33;12.02;;;;;;;2.45;100.00;99399.91;4185666;28;20445;-72
2022/09/22 07:10:39;;;;;;;25.40;12.00;;;;;;;2.49;100.00;99390.03;4186808;28;20385;-72
2022/09/22 07:12:40;;;;;;;18.80;10.82;;;;;;;2.57;100.00;99394.78;4186068;28;20094;-72
2022/09/22 07:14:40;;;;;;;18.08;10.20;;;;;;;2.63;100.00;99399.03;4186503;28;20061;-71
2022/09/22 07:16:41;;;;;;;20.55;10.95;;;;;;;2.73;100.00;99401.56;4186651;28;20102;-72
2022/09/22 07:18:48;;;;;;;25.67;11.15;;;;;;;2.80;100.00;99407.41;4185924;28;20048;-72
2022/09/22 07:20:48;;;;;;;19.92;11.98;;;;;;;2.90;100.00;99405.63;4184698;28;20087;-72
2022/09/22 07:22:49;;;;;;;27.90;12.57;;;;;;;2.97;100.00;99400.53;4185824;28;20083;-72
2022/09/22 07:24:49;;;;;;;12.77;7.93;;;;;;;3.07;100.00;99395.66;4186217;28;20045;-72
2022/09/22 07:26:50;;;;;;;10.82;7.07;;;;;;;3.15;100.00;99396.88;4187050;28;20436;-72
2022/09/22 07:28:52;;;;;;;10.68;5.80;;;;;;;3.20;100.00;99396.75;4185317;28;20219;-71
2022/09/22 07:30:52;;;;;;;10.65;5.78;;;;;;;3.30;100.00;99399.25;4185836;28;20041;-71
2022/09/22 07:32:53;;;;;;;12.40;5.95;;;;;;;3.42;100.00;99406.94;4186284;28;20337;-71
2022/09/22 07:34:55;;;;;;;8.93;6.00;;;;;;;3.53;100.00;99399.31;4182796;28;20036;-71
2022/09/22 07:36:56;;;;;;;12.80;5.95;;;;;;;3.67;100.00;99413.75;4185307;28;20472;-71
2022/09/22 07:39:02;;;;;;;9.82;5.93;;;;;;;3.75;100.00;99404.81;4183747;28;20765;-71
2022/09/22 07:41:05;;;;;;;8.93;5.50;;;;;;;3.88;100.00;99411.31;4183678;28;20044;-71
2022/09/22 07:43:05;;;;;;;12.35;6.82;;;;;;;3.97;100.00;99405.91;4185927;28;20072;-71
2022/09/22 07:45:12;;;;;;;14.90;6.95;;;;;;;4.10;100.00;99410.50;4185487;28;20452;-71
2022/09/22 07:47:13;;;;;;;10.77;6.35;;;;;;;4.26;100.00;99402.72;4185026;28;20052;-71
2022/09/22 07:49:16;;;;;;;9.20;5.68;;;;;;;4.43;100.00;99408.28;4184310;28;20488;-71
2022/09/22 07:51:20;;;;;;;9.07;5.32;;;;;;;4.58;100.00;99409.81;4185410;28;20055;-70
2022/09/22 07:53:21;;;;;;;9.18;5.95;;;;;;;4.72;100.00;99413.28;4185854;28;20044;-71
2022/09/22 07:55:23;;;;;;;7.03;4.53;;;;;;;4.86;100.00;99405.72;4185294;28;20044;-71
2022/09/22 07:57:23;;;;;;;8.13;4.97;;;;;;;4.99;100.00;99402.06;4185869;28;20061;-71
2022/09/22 07:59:24;;;;;;;9.68;5.63;;;;;;;5.12;100.00;99410.47;4185225;28;20050;-71
2022/09/22 08:01:31;;;;;;;6.40;4.20;;;;;;;5.21;100.00;99405.81;4186027;28;20044;-71
2022/09/22 08:03:33;;;;;;;6.43;4.05;;;;;;;5.33;100.00;99403.25;4185715;28;20052;-71
2022/09/22 08:05:33;;;;;;;6.00;3.83;;;;;;;5.43;100.00;99408.44;4185663;28;20131;-71
2022/09/22 08:07:36;;;;;;;7.15;4.75;;;;;;;5.51;100.00;99412.31;4185869;28;20570;-71
2022/09/22 08:09:36;;;;;;;6.63;4.40;;;;;;;5.62;100.00;99408.13;4185061;28;20131;-71
2022/09/22 08:11:37;;;;;;;5.22;4.15;;;;;;;5.71;100.00;99405.38;4185948;28;20071;-71
2022/09/22 08:13:39;;;;;;;8.25;4.40;;;;;;;5.74;100.00;99402.81;4186014;28;20055;-71
2022/09/22 08:15:41;;;;;;;9.35;5.07;;;;;;;5.88;100.00;99402.66;4186067;28;20369;-71
2022/09/22 08:17:42;;;;;;;7.27;5.20;;;;;;;6.00;100.00;99396.50;4185416;28;20207;-72
2022/09/22 08:19:43;;;;;;;7.80;4.47;;;;;;;6.08;100.00;99404.75;4185116;28;20291;-71
2022/09/22 08:21:45;;;;;;;8.32;4.40;;;;;;;6.15;100.00;99402.31;4183615;28;20083;-71
2022/09/22 08:23:46;;;;;;;8.20;4.22;;;;;;;6.24;100.00;99396.78;4185986;28;20480;-71
2022/09/22 08:25:46;;;;;;;10.07;4.50;;;;;;;6.40;100.00;99397.06;4185878;28;20065;-71
2022/09/22 08:27:46;;;;;;;6.75;4.38;;;;;;;6.55;100.00;99395.75;4185934;28;20490;-71
2022/09/22 08:29:47;;;;;;;4.47;3.70;;;;;;;6.68;100.00;99390.00;4185355;28;20048;-71
2022/09/22 08:31:48;;;;;;;9.05;4.25;;;;;;;6.76;98.22;99391.91;4185800;28;20408;-72
2022/09/22 08:33:50;;;;;;;6.35;3.53;;;;;;;6.84;98.30;99394.97;4185286;28;20404;-72
2022/09/22 08:35:56;;;;;;;6.72;3.60;;;;;;;6.92;97.04;99391.38;4186288;28;20049;-72
2022/09/22 08:37:57;;;;;;;6.40;3.42;;;;;;;6.99;96.47;99395.22;4185673;28;20051;-71
2022/09/22 08:39:57;;;;;;;4.75;3.40;;;;;;;7.09;97.19;99382.22;4185049;28;20044;-71
2022/09/22 08:42:12;;;;;;;7.30;3.88;;;;;;;7.16;97.37;99388.00;4184967;28;20400;-71
2022/09/22 08:44:38;;;;;;;8.25;3.25;;;;;;;7.22;96.30;99384.72;4185694;28;20044;-72
2022/09/22 08:46:42;;;;;;;4.57;3.45;;;;;;;7.32;96.27;99389.03;4185751;28;20051;-71
2022/09/22 08:53:49;;;;;;;4.55;3.10;;;;;;;7.73;93.71;99393.75;4184553;28;20059;-72
2022/09/22 08:56:29;;;;;;;4.65;2.40;;;;;;;7.85;92.21;99381.97;4185299;28;20489;-72
2022/09/22 08:58:36;;;;;;;3.95;2.10;;;;;;;7.97;89.53;99384.78;4180840;28;20115;-71
2022/09/22 09:00:41;;;;;;;5.15;3.10;;;;;;;8.11;90.53;99382.53;4185664;28;20423;-71
2022/09/22 09:02:48;;;;;;;5.30;2.97;;;;;;;8.29;90.81;99390.63;4185262;28;20052;-71
2022/09/22 09:05:28;;;;;;;3.33;2.70;;;;;;;8.38;91.16;99381.16;4184382;28;20060;-71
2022/09/22 09:07:57;;;;;;;6.30;3.00;;;;;;;8.49;89.81;99386.22;4188106;28;20053;-71
2022/09/22 09:10:16;;;;;;;4.63;3.05;;;;;;;8.62;89.46;99387.84;4186862;28;20056;-71
2022/09/22 09:12:29;;;;;;;4.28;2.80;;;;;;;8.71;88.46;99386.59;4188148;28;20041;-71
2022/09/22 09:14:33;;;;;;;3.65;2.33;;;;;;;8.76;87.70;99380.03;4187859;28;20071;-71
2022/09/22 09:16:56;;;;;;;4.97;3.03;;;;;;;8.84;88.72;99387.41;4187867;28;20546;-71
2022/09/22 09:19:13;;;;;;;3.97;2.58;;;;;;;8.91;88.62;99373.84;4186491;28;20045;-71
2022/09/22 09:21:14;;;;;;;6.38;2.92;;;;;;;8.96;86.09;99375.56;4188466;28;20041;-71
2022/09/22 09:23:25;;;;;;;6.00;2.80;;;;;;;9.06;88.45;99379.81;4188323;28;20353;-71
2022/09/22 09:25:30;;;;;;;4.20;2.78;;;;;;;9.13;87.75;99366.25;4187888;28;20373;-71
2022/09/22 09:27:37;;;;;;;4.70;3.40;;;;;;;9.26;87.58;99370.56;4187324;28;20373;-71
2022/09/22 09:29:49;;;;;;;5.93;2.90;;;;;;;9.37;87.47;99374.50;4186922;28;20097;-72
2022/09/22 09:31:52;;;;;;;6.30;4.00;;;;;;;9.50;86.56;99370.53;4187581;28;20051;-71
2022/09/22 09:34:02;;;;;;;6.75;3.72;;;;;;;9.66;85.12;99365.06;4187643;28;20560;-72
2022/09/22 09:36:03;;;;;;;3.22;2.63;;;;;;;9.72;85.05;99366.44;4187641;28;20048;-72
2022/09/22 09:38:09;;;;;;;5.40;2.95;;;;;;;9.77;85.48;99368.97;4187461;28;20090;-72
2022/09/22 09:40:16;;;;;;;3.60;3.20;;;;;;;9.84;84.79;99368.34;4186338;28;20552;-72
2022/09/22 09:42:27;;;;;;;7.03;3.40;;;;;;;9.98;83.74;99362.44;4188184;28;20340;-72
2022/09/22 09:44:37;;;;;;;3.13;2.55;;;;;;;10.12;82.96;99363.63;4187807;28;20053;-72
2022/09/22 09:46:45;;;;;;;5.88;3.17;;;;;;;10.29;81.11;99370.84;4187846;28;20067;-72
2022/09/22 09:49:16;;;;;;;4.47;3.25;;;;;;;10.40;82.03;99360.84;4186898;28;20049;-72